Aérodrome :
LOGIN :

S'inscrire | Disclaimer

   EN    FR    IT 

 










Légende :    VFR   VFR Marginal   IFR   IFR Intensif   IFR Très Intensif
Visi : 
Plafond : 
>= 8 km
>= 3000ft
5 à 8 km
1000 à 3000 ft
1500m à 5 km
500 à 1000 ft
800 à 1500m
200 à 500 ft
< 800m
< 200 ft
Symboles :   Orages  Brouillard  Fortes neiges  Fortes précipitations  Vent > 20 kt
SIGMETs :   Divers  Orages  Givrage  Turbulence  Onde Orograph.  Cendres Volcan.







- Altitude de l'aérodrome : 87 ft
- Code IATA : FSC
- Voir les cartes d'approche


LFKF - Figari

DERNIER METAR :
  • 172030Z AUTO 07009KT 050V110 9999 SCT056/// BKN076/// OVC092/// ///CB 10/08 Q1016 TEMPO SHRA BECMG 05015G25KT

METARs EXPIRÉS :
  • 172000Z AUTO 08009KT 9999 SCT058/// BKN072/// OVC084/// ///CB 10/07 Q1016 TEMPO SHRA BKN060 BECMG 05015G25KT
  • 171930Z AUTO 08009KT 9999 BKN058/// OVC072/// ///CB 11/06 Q1016 TEMPO SHRA BKN060 BECMG 05015G25KT
  • 171900Z AUTO 08008KT 9999 FEW050/// OVC060/// ///CB 12/05 Q1016 BECMG 05015G25KT BKN060
  • 171830Z AUTO 08007KT 050V110 9999 VCTS FEW056/// SCT068/// BKN078/// ///CB 12/05 Q1016 BECMG 05015G25KT NSW BKN060
  • 171800Z AUTO 08007KT 050V110 9999 ///CB 12/05 Q1016 BECMG 05015G25KT BKN060

TAF TAF LFKF
Valide du 17 à 15h jusqu'au 18 à 15h UTC


171400Z 1715/1815 05015G25KT 9999 BKN060
TEMPO 1715/1718 SHRA FEW035CB BKN040
TEMPO 1721/1803 FEW035TCU BKN040
PROB40
TEMPO 1721/1803 SHRA
Pas de NOTAMs connus pour ce terrain.
2 SIGMETs publiés pour la FIR Marseille (LFMM) :
 
Turbulence forte
LFMM SIGMET 5 VALID 172100/180100 LFPW
LFMM MARSEILLE FIR/UIR SEV TURB FCST WI N4500 E00700 - N4400 E00700 - N4315 E00945 - N4215 E00815 - N4300 E00530 - N4500 E00615 - N4500 E00700 SFC/FL070 STNR NC=
Orages noyés dans la masse
LFMM SIGMET 4 VALID 171800/172200 LFPW
LFMM MARSEILLE FIR/UIR EMBD TS FCST WI N4145 E00945 - N4115 E00945 - N4115 E00800 - N3900 E00800 - N3900 E00615 - N4215 E00730 - N4145 E00945 TOP FL260 STNR NC=



MET'MAP, la Météo Aéronautique d'un coup d'oeil ! - Copyright ORBIFLY Décembre 2007 - Disclaimer

ORBIFLY MET'MAP TEAM :

Programmation & Développement : Alexandra Zaïnal
Conception & Développement : Baudouin d'Aumeries
Co-Programmation & Développement : Marc-Olivier Méhu
Soutien technique & logistique : Manuel Goepfert

Contact : metmap@orbifly.com




SOURCES & CREDITS :

   NOAA